createdAt,value
2019-02-25T00:00:13.406Z,9.78
2019-02-25T00:02:42.061Z,9.74
2019-02-25T00:05:10.661Z,9.73
2019-02-25T00:07:39.329Z,9.68
2019-02-25T00:10:09.671Z,9.65
2019-02-25T00:12:38.101Z,9.63
2019-02-25T00:15:08.971Z,9.60
2019-02-25T00:17:40.037Z,9.56
2019-02-25T00:20:10.979Z,9.53
2019-02-25T00:22:39.486Z,9.49
2019-02-25T00:25:10.276Z,9.46
2019-02-25T00:27:38.783Z,9.44
2019-02-25T00:30:15.179Z,9.43
2019-02-25T00:32:43.723Z,9.40
2019-02-25T00:35:12.269Z,9.39
2019-02-25T00:37:40.831Z,9.36
2019-02-25T00:40:11.437Z,9.32
2019-02-25T00:42:39.843Z,9.27
2019-02-25T00:45:14.204Z,9.26
2019-02-25T00:47:42.779Z,9.23
2019-02-25T00:50:22.528Z,9.21
2019-02-25T00:52:51.259Z,9.18
2019-02-25T00:55:19.842Z,9.16
2019-02-25T00:57:48.441Z,9.13
2019-02-25T01:00:21.882Z,9.11
2019-02-25T01:02:50.731Z,9.11
2019-02-25T01:05:19.505Z,9.09
2019-02-25T01:07:48.203Z,9.08
2019-02-25T01:10:17.606Z,9.08
2019-02-25T01:12:46.681Z,9.05
2019-02-25T01:15:16.088Z,9.05
2019-02-25T01:17:44.792Z,8.99
2019-02-25T01:20:17.135Z,8.99
2019-02-25T01:22:45.717Z,8.98
2019-02-25T01:25:16.413Z,8.97
2019-02-25T01:27:44.845Z,8.97
2019-02-25T01:30:18.681Z,8.95
2019-02-25T01:32:47.352Z,8.93
2019-02-25T01:35:16.068Z,8.92
2019-02-25T01:37:44.668Z,8.90
2019-02-25T01:40:14.158Z,8.88
2019-02-25T01:42:42.864Z,8.87
2019-02-25T01:45:15.951Z,8.83
2019-02-25T01:47:44.593Z,8.82
2019-02-25T01:50:13.416Z,8.80
2019-02-25T01:52:42.021Z,8.78
2019-02-25T01:55:12.884Z,8.77
2019-02-25T01:57:41.459Z,8.76
2019-02-25T02:00:17.974Z,8.74
2019-02-25T02:02:46.469Z,8.73
2019-02-25T02:05:15.018Z,8.71
2019-02-25T02:07:43.742Z,8.72
2019-02-25T02:10:14.315Z,8.71
2019-02-25T02:12:42.909Z,8.71
2019-02-25T02:15:16.027Z,8.70
2019-02-25T02:17:44.517Z,8.68
2019-02-25T02:20:15.109Z,8.67
2019-02-25T02:22:43.503Z,8.66
2019-02-25T02:25:12.996Z,8.65
2019-02-25T02:27:41.825Z,8.63
2019-02-25T02:30:19.346Z,8.63
2019-02-25T02:32:48.113Z,8.63
2019-02-25T02:35:16.715Z,8.62
2019-02-25T02:37:45.250Z,8.59
2019-02-25T02:40:14.427Z,8.59
2019-02-25T02:42:54.635Z,8.57
2019-02-25T02:45:47.293Z,8.57
2019-02-25T02:48:19.066Z,8.56
2019-02-25T02:50:47.503Z,8.55
2019-02-25T02:53:15.997Z,8.55
2019-02-25T02:55:44.438Z,8.56
2019-02-25T02:58:13.116Z,8.56
2019-02-25T03:00:41.633Z,8.55
2019-02-25T03:03:10.193Z,8.56
2019-02-25T03:05:38.702Z,8.56
2019-02-25T03:08:07.297Z,8.55
2019-02-25T03:10:35.706Z,8.56
2019-02-25T03:13:04.285Z,8.55
2019-02-25T03:15:32.765Z,8.55
2019-02-25T03:18:01.265Z,8.53
2019-02-25T03:20:29.888Z,8.51
2019-02-25T03:22:58.373Z,8.50
2019-02-25T03:25:27.001Z,8.47
2019-02-25T03:27:55.620Z,8.46
2019-02-25T03:30:24.190Z,8.44
2019-02-25T03:32:52.777Z,8.44
2019-02-25T03:35:21.317Z,8.42
2019-02-25T03:37:49.934Z,8.41
2019-02-25T03:40:22.568Z,8.41
2019-02-25T03:42:51.179Z,8.38
2019-02-25T03:45:20.528Z,8.37
2019-02-25T03:47:49.190Z,8.37
2019-02-25T03:50:17.759Z,8.35
2019-02-25T03:52:46.209Z,8.36
2019-02-25T03:55:16.458Z,8.34
2019-02-25T03:57:45.113Z,8.32
2019-02-25T04:00:15.972Z,8.32
2019-02-25T04:02:44.494Z,8.30
2019-02-25T04:05:13.122Z,8.26
2019-02-25T04:07:41.698Z,8.25
2019-02-25T04:10:12.056Z,8.25
2019-02-25T04:12:40.626Z,8.25
2019-02-25T04:15:11.884Z,8.22
2019-02-25T04:17:40.360Z,8.22
2019-02-25T04:20:13.901Z,8.21
2019-02-25T04:22:42.562Z,8.20
2019-02-25T04:25:11.313Z,8.19
2019-02-25T04:27:39.795Z,8.19
2019-02-25T04:30:11.183Z,8.16
2019-02-25T04:32:39.843Z,8.16
2019-02-25T04:35:09.959Z,8.15
2019-02-25T04:37:38.602Z,8.15
2019-02-25T04:40:09.783Z,8.13
2019-02-25T04:42:38.257Z,8.11
2019-02-25T04:45:12.279Z,8.10
2019-02-25T04:47:41.026Z,8.09
2019-02-25T04:50:11.010Z,8.05
2019-02-25T04:52:39.440Z,8.06
2019-02-25T04:55:09.845Z,8.06
2019-02-25T04:57:38.441Z,8.02
2019-02-25T05:00:13.182Z,8.00
2019-02-25T05:02:42.177Z,7.98
2019-02-25T05:05:10.989Z,7.99
2019-02-25T05:07:39.485Z,7.98
2019-02-25T05:10:12.872Z,7.96
2019-02-25T05:12:43.068Z,7.97
2019-02-25T05:15:13.635Z,7.97
2019-02-25T05:17:42.500Z,7.96
2019-02-25T05:20:11.238Z,7.95
2019-02-25T05:22:39.986Z,7.95
2019-02-25T05:25:11.040Z,7.91
2019-02-25T05:27:39.597Z,7.89
2019-02-25T05:30:13.629Z,7.84
2019-02-25T05:32:42.099Z,7.83
2019-02-25T05:35:11.757Z,7.81
2019-02-25T05:37:40.391Z,7.79
2019-02-25T05:40:12.166Z,7.77
2019-02-25T05:42:40.622Z,7.77
2019-02-25T05:45:09.698Z,7.74
2019-02-25T05:47:38.826Z,7.72
2019-02-25T05:50:12.494Z,7.70
2019-02-25T05:52:41.050Z,7.68
2019-02-25T05:55:12.005Z,7.68
2019-02-25T05:57:40.641Z,7.67
2019-02-25T06:00:12.936Z,7.64
2019-02-25T06:02:41.635Z,7.62
2019-02-25T06:05:10.183Z,7.59
2019-02-25T06:07:38.857Z,7.61
2019-02-25T06:10:09.563Z,7.61
2019-02-25T06:12:38.008Z,7.59
2019-02-25T06:15:09.435Z,7.56
2019-02-25T06:17:37.989Z,7.54
2019-02-25T06:20:09.359Z,7.51
2019-02-25T06:22:37.881Z,7.50
2019-02-25T06:25:08.533Z,7.49
2019-02-25T06:27:37.034Z,7.49
2019-02-25T06:30:11.391Z,7.47
2019-02-25T06:32:39.820Z,7.46
2019-02-25T06:35:09.570Z,7.47
2019-02-25T06:37:38.032Z,7.45
2019-02-25T06:40:09.597Z,7.45
2019-02-25T06:42:38.090Z,7.41
2019-02-25T06:45:09.729Z,7.40
2019-02-25T06:47:38.172Z,7.40
2019-02-25T06:50:09.457Z,7.39
2019-02-25T06:52:37.854Z,7.38
2019-02-25T06:55:09.452Z,7.36
2019-02-25T06:57:37.891Z,7.37
2019-02-25T07:00:12.259Z,7.39
2019-02-25T07:02:40.823Z,7.40
2019-02-25T07:05:14.033Z,7.42
2019-02-25T07:07:49.957Z,7.43
2019-02-25T07:10:35.972Z,7.42
2019-02-25T07:13:06.304Z,7.44
2019-02-25T07:15:39.225Z,7.45
2019-02-25T07:18:09.294Z,7.46
2019-02-25T07:20:39.501Z,7.46
2019-02-25T07:23:25.771Z,7.47
2019-02-25T07:26:01.594Z,7.49
2019-02-25T07:28:41.028Z,7.49
2019-02-25T07:31:11.180Z,7.50
2019-02-25T07:33:43.821Z,7.53
2019-02-25T07:36:14.083Z,7.54
2019-02-25T07:38:44.209Z,7.55
2019-02-25T07:41:23.428Z,7.56
2019-02-25T07:43:59.380Z,7.56
2019-02-25T07:46:45.827Z,7.58
2019-02-25T07:49:21.877Z,7.61
2019-02-25T07:51:58.171Z,7.65
2019-02-25T07:54:28.241Z,7.67
2019-02-25T07:56:58.334Z,7.71
2019-02-25T07:59:28.789Z,7.74
2019-02-25T08:02:04.701Z,7.78
2019-02-25T08:04:49.828Z,7.80
2019-02-25T08:07:28.881Z,7.83
2019-02-25T08:10:08.078Z,7.89
2019-02-25T08:12:54.289Z,7.94
2019-02-25T08:15:24.443Z,7.98
2019-02-25T08:17:54.529Z,8.04
2019-02-25T08:20:24.688Z,8.09
2019-02-25T08:22:57.798Z,8.15
2019-02-25T08:25:55.604Z,8.21
2019-02-25T08:28:32.647Z,8.28
2019-02-25T08:31:06.001Z,8.34
2019-02-25T08:33:38.899Z,8.39
2019-02-25T08:36:31.158Z,8.45
2019-02-25T08:39:01.222Z,8.50
2019-02-25T08:41:37.281Z,8.57
2019-02-25T08:44:07.439Z,8.61
2019-02-25T08:46:40.368Z,8.67
2019-02-25T08:49:16.002Z,8.74
2019-02-25T08:51:44.501Z,8.80
2019-02-25T08:54:13.223Z,8.86
2019-02-25T08:56:41.872Z,8.92
2019-02-25T08:59:10.439Z,8.98
2019-02-25T09:01:38.981Z,9.05
2019-02-25T09:04:07.403Z,9.13
2019-02-25T09:06:36.210Z,9.20
2019-02-25T09:09:06.017Z,9.29
2019-02-25T09:11:34.514Z,9.36
2019-02-25T09:14:02.999Z,9.47
2019-02-25T09:16:31.549Z,9.55
2019-02-25T09:18:59.993Z,9.62
2019-02-25T09:21:31.859Z,9.71
2019-02-25T09:23:58.670Z,9.75
2019-02-25T09:26:27.137Z,9.81
2019-02-25T09:28:57.301Z,9.90
2019-02-25T09:31:25.903Z,10.00
2019-02-25T09:33:54.323Z,10.09
2019-02-25T09:36:22.793Z,10.18
2019-02-25T09:38:51.506Z,10.25
2019-02-25T09:41:29.446Z,10.36
2019-02-25T09:43:50.537Z,10.47
2019-02-25T09:46:19.056Z,10.61
2019-02-25T09:48:47.594Z,10.72
2019-02-25T09:51:16.335Z,10.83
2019-02-25T09:53:44.786Z,10.95
2019-02-25T09:56:13.291Z,11.07
2019-02-25T09:58:41.810Z,11.19
2019-02-25T10:01:10.372Z,11.32
2019-02-25T10:03:39.108Z,11.42
2019-02-25T10:06:07.739Z,11.53
2019-02-25T10:08:36.435Z,11.68
2019-02-25T10:11:04.863Z,11.80
2019-02-25T10:13:33.323Z,11.98
2019-02-25T10:16:03.467Z,12.08
2019-02-25T10:18:31.913Z,12.19
2019-02-25T10:21:00.504Z,12.31
2019-02-25T10:23:29.154Z,12.44
2019-02-25T10:25:57.730Z,12.61
2019-02-25T10:28:26.344Z,12.78
2019-02-25T10:30:54.924Z,13.00
2019-02-25T10:33:23.384Z,13.19
2019-02-25T10:35:52.102Z,13.36
2019-02-25T10:38:21.599Z,13.54
2019-02-25T10:40:52.153Z,13.71
2019-02-25T10:43:20.295Z,13.87
2019-02-25T10:45:48.745Z,13.97
2019-02-25T10:48:17.805Z,14.07
2019-02-25T10:50:55.711Z,14.19
2019-02-25T10:53:18.346Z,14.37
2019-02-25T10:55:56.616Z,14.53
2019-02-25T10:58:26.866Z,14.68
2019-02-25T11:00:55.271Z,14.80
2019-02-25T11:03:23.733Z,14.94
2019-02-25T11:05:53.864Z,15.11
2019-02-25T11:08:22.581Z,15.25
2019-02-25T11:10:54.857Z,15.32
2019-02-25T11:13:23.192Z,15.42
2019-02-25T11:15:51.745Z,15.55
2019-02-25T11:18:21.985Z,15.68
2019-02-25T11:20:50.355Z,15.83
2019-02-25T11:23:19.405Z,16.04
2019-02-25T11:25:48.687Z,16.21
2019-02-25T11:28:25.148Z,16.33
2019-02-25T11:30:49.258Z,16.50
2019-02-25T11:33:17.871Z,16.75
2019-02-25T11:35:48.069Z,16.89
2019-02-25T11:38:16.815Z,17.09
2019-02-25T11:40:45.258Z,17.15
2019-02-25T11:43:16.061Z,17.40
2019-02-25T11:45:44.012Z,17.63
2019-02-25T11:48:12.445Z,17.87
2019-02-25T11:50:41.096Z,17.97
2019-02-25T11:53:09.527Z,18.25
2019-02-25T11:55:38.189Z,18.46
2019-02-25T11:58:06.629Z,18.61
2019-02-25T12:00:35.582Z,18.73
2019-02-25T12:03:04.188Z,19.04
2019-02-25T12:05:32.658Z,19.36
2019-02-25T12:08:01.243Z,19.64
2019-02-25T12:10:29.921Z,19.81
2019-02-25T12:12:58.445Z,19.92
2019-02-25T12:15:27.647Z,20.12
2019-02-25T12:17:56.155Z,20.27
2019-02-25T12:20:24.633Z,20.40
2019-02-25T12:22:53.293Z,20.65
2019-02-25T12:25:23.753Z,20.88
2019-02-25T12:27:52.300Z,20.97
2019-02-25T12:30:24.809Z,20.98
2019-02-25T12:32:53.354Z,21.03
2019-02-25T12:35:21.760Z,21.22
2019-02-25T12:37:50.358Z,21.45
2019-02-25T12:40:20.806Z,21.65
2019-02-25T12:42:49.734Z,21.76
2019-02-25T12:45:18.364Z,21.92
2019-02-25T12:47:46.793Z,22.06
2019-02-25T12:50:19.026Z,22.02
2019-02-25T12:52:47.903Z,21.94
2019-02-25T12:55:20.192Z,22.09
2019-02-25T12:57:48.810Z,22.23
2019-02-25T13:00:24.417Z,22.46
2019-02-25T13:02:52.953Z,22.60
2019-02-25T13:05:25.054Z,22.65
2019-02-25T13:07:53.711Z,22.74
2019-02-25T13:10:22.197Z,22.88
2019-02-25T13:12:51.750Z,22.95
2019-02-25T13:15:21.717Z,22.85
2019-02-25T13:17:50.429Z,22.92
2019-02-25T13:20:19.572Z,22.87
2019-02-25T13:22:48.286Z,22.81
2019-02-25T13:25:27.942Z,22.81
2019-02-25T13:27:56.924Z,22.86
2019-02-25T13:30:26.567Z,22.87
2019-02-25T13:32:54.993Z,22.84
2019-02-25T13:35:23.614Z,22.88
2019-02-25T13:37:52.120Z,22.87
2019-02-25T13:40:20.741Z,22.84
2019-02-25T13:42:49.640Z,22.84
2019-02-25T13:45:19.646Z,22.78
2019-02-25T13:47:48.416Z,22.69
2019-02-25T13:50:17.760Z,22.61
2019-02-25T13:52:48.526Z,22.69
2019-02-25T13:55:18.830Z,22.78
2019-02-25T13:57:47.556Z,22.79
2019-02-25T14:00:18.411Z,22.73
2019-02-25T14:02:47.605Z,22.73
2019-02-25T14:05:16.264Z,22.70
2019-02-25T14:07:45.028Z,22.69
2019-02-25T14:10:15.513Z,22.69
2019-02-25T14:12:44.102Z,22.63
2019-02-25T14:15:18.090Z,22.62
2019-02-25T14:17:46.611Z,22.74
2019-02-25T14:20:17.736Z,22.98
2019-02-25T14:22:46.935Z,23.62
2019-02-25T14:25:19.747Z,24.76
2019-02-25T14:27:48.536Z,25.77
2019-02-25T14:30:22.646Z,26.62
2019-02-25T14:32:53.382Z,26.89
2019-02-25T14:35:28.114Z,25.50
2019-02-25T14:37:57.184Z,24.32
2019-02-25T14:40:29.005Z,23.48
2019-02-25T14:42:59.557Z,22.81
2019-02-25T14:45:28.938Z,22.26
2019-02-25T14:47:59.862Z,21.89
2019-02-25T14:50:28.258Z,21.65
2019-02-25T14:52:56.976Z,21.44
2019-02-25T14:55:26.010Z,21.23
2019-02-25T14:57:55.236Z,21.08
2019-02-25T15:00:28.866Z,20.82
2019-02-25T15:02:57.046Z,20.63
2019-02-25T15:05:25.900Z,20.46
2019-02-25T15:07:54.593Z,20.31
2019-02-25T15:10:26.617Z,20.22
2019-02-25T15:12:56.552Z,20.18
2019-02-25T15:15:24.361Z,20.12
2019-02-25T15:17:52.925Z,20.18
2019-02-25T15:20:23.397Z,20.50
2019-02-25T15:22:52.789Z,21.20
2019-02-25T15:25:21.748Z,21.28
2019-02-25T15:27:50.430Z,21.33
2019-02-25T15:30:28.221Z,20.97
2019-02-25T15:32:58.984Z,20.71
2019-02-25T15:35:31.484Z,20.50
2019-02-25T15:38:00.064Z,20.43
2019-02-25T15:40:28.084Z,20.37
2019-02-25T15:43:02.591Z,20.26
2019-02-25T15:45:34.995Z,20.29
2019-02-25T15:48:03.677Z,20.48
2019-02-25T15:50:32.797Z,20.87
2019-02-25T15:53:03.326Z,21.12
2019-02-25T15:55:31.766Z,21.10
2019-02-25T15:58:00.455Z,20.70
2019-02-25T16:00:33.948Z,20.29
2019-02-25T16:03:00.896Z,19.97
2019-02-25T16:05:31.964Z,19.72
2019-02-25T16:08:02.442Z,19.52
2019-02-25T16:10:31.131Z,19.37
2019-02-25T16:13:02.232Z,19.24
2019-02-25T16:15:30.789Z,19.13
2019-02-25T16:17:59.528Z,19.02
2019-02-25T16:20:32.254Z,18.90
2019-02-25T16:23:00.481Z,18.84
2019-02-25T16:25:30.452Z,18.78
2019-02-25T16:27:59.771Z,18.72
2019-02-25T16:30:30.628Z,18.63
2019-02-25T16:33:00.020Z,18.55
2019-02-25T16:35:29.013Z,18.48
2019-02-25T16:37:57.631Z,18.43
2019-02-25T16:40:29.171Z,18.36
2019-02-25T16:42:59.613Z,18.29
2019-02-25T16:45:34.275Z,18.21
2019-02-25T16:47:58.351Z,18.13
2019-02-25T16:50:26.910Z,18.05
2019-02-25T16:52:55.423Z,17.99
2019-02-25T16:55:27.850Z,17.91
2019-02-25T16:57:56.615Z,17.83
2019-02-25T17:00:27.828Z,17.76
2019-02-25T17:02:59.226Z,17.68
2019-02-25T17:05:26.882Z,17.61
2019-02-25T17:07:56.237Z,17.55
2019-02-25T17:10:27.061Z,17.47
2019-02-25T17:12:56.153Z,17.40
2019-02-25T17:15:26.868Z,17.31
2019-02-25T17:17:58.323Z,17.20
2019-02-25T17:20:27.789Z,17.10
2019-02-25T17:22:55.723Z,17.03
2019-02-25T17:25:26.972Z,16.95
2019-02-25T17:27:55.002Z,16.90
2019-02-25T17:30:24.736Z,16.84
2019-02-25T17:32:54.930Z,16.76
2019-02-25T17:35:28.181Z,16.68
2019-02-25T17:37:58.366Z,16.63
2019-02-25T17:40:26.209Z,16.57
2019-02-25T17:42:56.353Z,16.50
2019-02-25T17:45:31.671Z,16.45
2019-02-25T17:48:02.997Z,16.41
2019-02-25T17:50:32.436Z,16.36
2019-02-25T17:53:01.360Z,16.30
2019-02-25T17:55:32.224Z,16.26
2019-02-25T17:58:01.805Z,16.20
2019-02-25T18:00:37.403Z,16.14
2019-02-25T18:03:06.899Z,16.09
2019-02-25T18:05:36.410Z,16.04
2019-02-25T18:08:08.097Z,15.98
2019-02-25T18:10:37.268Z,15.93
2019-02-25T18:13:08.039Z,15.87
2019-02-25T18:15:36.694Z,15.83
2019-02-25T18:18:09.200Z,15.76
2019-02-25T18:20:36.575Z,15.71
2019-02-25T18:23:06.072Z,15.63
2019-02-25T18:25:34.702Z,15.58
2019-02-25T18:28:04.434Z,15.54
2019-02-25T18:30:34.262Z,15.49
2019-02-25T18:33:05.288Z,15.46
2019-02-25T18:35:36.248Z,15.41
2019-02-25T18:38:07.005Z,15.37
2019-02-25T18:40:35.942Z,15.33
2019-02-25T18:43:06.817Z,15.28
2019-02-25T18:45:37.806Z,15.23
2019-02-25T18:48:07.436Z,15.18
2019-02-25T18:50:36.324Z,15.13
2019-02-25T18:53:05.637Z,15.08
2019-02-25T18:55:34.489Z,15.03
2019-02-25T18:58:05.129Z,14.99
2019-02-25T19:00:46.128Z,14.96
2019-02-25T19:03:13.496Z,14.91
2019-02-25T19:05:42.076Z,14.87
2019-02-25T19:08:19.619Z,14.81
2019-02-25T19:10:48.021Z,14.78
2019-02-25T19:13:18.584Z,14.73
2019-02-25T19:15:50.268Z,14.68
2019-02-25T19:18:19.102Z,14.63
2019-02-25T19:20:48.242Z,14.59
2019-02-25T19:23:17.135Z,14.55
2019-02-25T19:25:45.884Z,14.50
2019-02-25T19:28:18.813Z,14.46
2019-02-25T19:30:45.006Z,14.40
2019-02-25T19:33:13.710Z,14.37
2019-02-25T19:35:42.378Z,14.33
2019-02-25T19:38:12.938Z,14.30
2019-02-25T19:40:43.273Z,14.28
2019-02-25T19:43:12.124Z,14.24
2019-02-25T19:45:42.607Z,14.21
2019-02-25T19:48:11.052Z,14.17
2019-02-25T19:50:50.487Z,14.12
2019-02-25T19:53:14.667Z,14.08
2019-02-25T19:55:41.014Z,14.04
2019-02-25T19:58:10.841Z,13.99
2019-02-25T20:00:39.341Z,13.94
2019-02-25T20:03:07.957Z,13.90
2019-02-25T20:05:38.958Z,13.85
2019-02-25T20:08:06.883Z,13.81
2019-02-25T20:10:35.759Z,13.77
2019-02-25T20:13:07.758Z,13.72
2019-02-25T20:15:37.632Z,13.67
2019-02-25T20:18:07.072Z,13.64
2019-02-25T20:20:36.564Z,13.58
2019-02-25T20:23:08.413Z,13.56
2019-02-25T20:25:36.947Z,13.50
2019-02-25T20:28:05.742Z,13.46
2019-02-25T20:30:34.663Z,13.43
2019-02-25T20:33:04.539Z,13.39
2019-02-25T20:35:33.594Z,13.32
2019-02-25T20:38:05.194Z,13.32
2019-02-25T20:40:33.846Z,13.29
2019-02-25T20:43:03.249Z,13.24
2019-02-25T20:45:35.870Z,13.20
2019-02-25T20:48:05.098Z,13.14
2019-02-25T20:50:33.646Z,13.10
2019-02-25T20:53:07.982Z,13.07
2019-02-25T20:55:34.484Z,13.02
2019-02-25T20:58:02.848Z,12.98
2019-02-25T21:00:34.815Z,12.92
2019-02-25T21:03:01.618Z,12.86
2019-02-25T21:05:30.356Z,12.86
2019-02-25T21:07:59.923Z,12.82
2019-02-25T21:10:30.507Z,12.79
2019-02-25T21:13:01.962Z,12.74
2019-02-25T21:15:33.393Z,12.70
2019-02-25T21:18:04.070Z,12.58
2019-02-25T21:20:31.480Z,12.59
2019-02-25T21:23:03.587Z,12.59
2019-02-25T21:25:31.462Z,12.56
2019-02-25T21:28:02.296Z,12.54
2019-02-25T21:30:31.009Z,12.49
2019-02-25T21:32:59.443Z,12.41
2019-02-25T21:35:30.148Z,12.41
2019-02-25T21:37:58.368Z,12.38
2019-02-25T21:40:29.431Z,12.35
2019-02-25T21:42:57.189Z,12.29
2019-02-25T21:45:28.969Z,12.27
2019-02-25T21:47:58.564Z,12.22
2019-02-25T21:50:30.451Z,12.22
2019-02-25T21:52:56.625Z,12.21
2019-02-25T21:55:27.848Z,12.18
2019-02-25T21:57:57.402Z,12.15
2019-02-25T22:00:26.999Z,12.13
2019-02-25T22:02:56.571Z,12.09
2019-02-25T22:05:25.173Z,12.05
2019-02-25T22:07:55.369Z,12.03
2019-02-25T22:10:24.269Z,12.00
2019-02-25T22:12:52.872Z,11.96
2019-02-25T22:15:22.445Z,11.94
2019-02-25T22:17:53.276Z,11.90
2019-02-25T22:20:22.494Z,11.88
2019-02-25T22:22:54.460Z,11.86
2019-02-25T22:25:25.254Z,11.82
2019-02-25T22:27:53.802Z,11.80
2019-02-25T22:30:22.458Z,11.77
2019-02-25T22:32:50.935Z,11.75
2019-02-25T22:35:19.683Z,11.73
2019-02-25T22:37:52.122Z,11.71
2019-02-25T22:40:18.501Z,11.68
2019-02-25T22:42:49.553Z,11.67
2019-02-25T22:45:22.377Z,11.65
2019-02-25T22:47:51.067Z,11.62
2019-02-25T22:50:19.751Z,11.61
2019-02-25T22:52:51.629Z,11.58
2019-02-25T22:55:22.154Z,11.56
2019-02-25T22:57:51.196Z,11.52
2019-02-25T23:00:30.107Z,11.50
2019-02-25T23:02:58.736Z,11.47
2019-02-25T23:05:27.436Z,11.45
2019-02-25T23:07:56.017Z,11.43
2019-02-25T23:10:24.723Z,11.40
2019-02-25T23:12:53.772Z,11.37
2019-02-25T23:15:24.639Z,11.33
2019-02-25T23:17:52.765Z,11.31
2019-02-25T23:20:22.968Z,11.29
2019-02-25T23:22:53.019Z,11.25
2019-02-25T23:25:21.886Z,11.24
2019-02-25T23:27:51.651Z,11.20
2019-02-25T23:30:21.336Z,11.18
2019-02-25T23:32:52.339Z,11.14
2019-02-25T23:35:23.073Z,11.11
2019-02-25T23:37:53.753Z,11.08
2019-02-25T23:40:22.551Z,11.05
2019-02-25T23:42:51.069Z,11.04
2019-02-25T23:45:21.261Z,11.01
2019-02-25T23:47:52.497Z,10.98
2019-02-25T23:50:20.481Z,10.95
2019-02-25T23:52:49.082Z,10.93
2019-02-25T23:55:19.640Z,10.90
2019-02-25T23:57:47.700Z,10.87
